TAF for OAMS provided by aerobaticsweb.org
Current time: Friday, 24 Sep, 2021, 16:25 UTC
(This may take a minute, please be patient)


The most recent TAF forecast from OAMS in our system was generated at
2021/06/25 06:28 UTC
The forecast is:
OAMS 2021/06/25 06:28 UTC
TAF OAMS 250500Z 2506/2606 23012KT 9999 NSW SKC
BECMG 2523/2601 VRB03KT 9999 NSW SKC BY ETGL



access provided by Dr. Guenther Eichhorn at aerobaticsweb.org